createdAt,value
2023-04-26T00:00:06.137Z,1012.97
2023-04-26T00:01:06.653Z,1012.97
2023-04-26T00:02:02.092Z,1012.97
2023-04-26T00:03:01.200Z,1012.97
2023-04-26T00:04:01.304Z,1013
2023-04-26T00:05:01.290Z,1012.93
2023-04-26T00:06:11.237Z,1012.98
2023-04-26T00:07:01.027Z,1012.94
2023-04-26T00:08:01.071Z,1012.96
2023-04-26T00:09:01.077Z,1012.94
2023-04-26T00:10:01.124Z,1012.96
2023-04-26T00:11:13.769Z,1013.01
2023-04-26T00:12:02.559Z,1012.99
2023-04-26T00:13:01.324Z,1012.97
2023-04-26T00:14:02.485Z,1012.99
2023-04-26T00:15:02.558Z,1013.01
2023-04-26T00:16:16.651Z,1013.06
2023-04-26T00:17:01.019Z,1013.02
2023-04-26T00:18:01.074Z,1013.06
2023-04-26T00:19:01.073Z,1013.09
2023-04-26T00:20:01.050Z,1013.11
2023-04-26T00:21:01.097Z,1013.08
2023-04-26T00:22:01.064Z,1013.12
2023-04-26T00:23:01.074Z,1013.08
2023-04-26T00:24:01.089Z,1013.13
2023-04-26T00:25:01.106Z,1013.15
2023-04-26T00:26:01.089Z,1013.15
2023-04-26T00:27:01.497Z,1013.17
2023-04-26T00:28:01.106Z,1013.13
2023-04-26T00:29:01.116Z,1013.16
2023-04-26T00:30:01.109Z,1013.2
2023-04-26T00:31:01.115Z,1013.17
2023-04-26T00:32:01.209Z,1013.17
2023-04-26T00:33:00.858Z,1013.15
2023-04-26T00:34:01.160Z,1013.16
2023-04-26T00:35:01.202Z,1013.18
2023-04-26T00:36:01.224Z,1013.16
2023-04-26T00:37:01.052Z,1013.16
2023-04-26T00:38:01.060Z,1013.11
2023-04-26T00:39:01.179Z,1013.17
2023-04-26T00:40:01.082Z,1013.14
2023-04-26T00:41:01.087Z,1013.16
2023-04-26T00:42:01.284Z,1013.24
2023-04-26T00:43:01.128Z,1013.17
2023-04-26T00:44:01.521Z,1013.24
2023-04-26T00:45:01.740Z,1013.21
2023-04-26T00:46:01.825Z,1013.25
2023-04-26T00:47:01.163Z,1013.23
2023-04-26T00:48:01.230Z,1013.28
2023-04-26T00:49:01.779Z,1013.3
2023-04-26T00:50:01.108Z,1013.29
2023-04-26T00:51:01.052Z,1013.29
2023-04-26T00:52:01.282Z,1013.3
2023-04-26T00:53:01.286Z,1013.3
2023-04-26T00:54:01.178Z,1013.29
2023-04-26T00:55:01.077Z,1013.32
2023-04-26T00:56:01.259Z,1013.31
2023-04-26T00:57:01.153Z,1013.3
2023-04-26T00:58:01.111Z,1013.37
2023-04-26T00:59:01.111Z,1013.33
2023-04-26T01:00:01.133Z,1013.32
2023-04-26T01:01:01.149Z,1013.33
2023-04-26T01:02:01.505Z,1013.34
2023-04-26T01:03:01.379Z,1013.33
2023-04-26T01:04:01.258Z,1013.3
2023-04-26T01:05:01.058Z,1013.32
2023-04-26T01:06:01.077Z,1013.3
2023-04-26T01:07:01.047Z,1013.29
2023-04-26T01:08:01.022Z,1013.31
2023-04-26T01:09:01.055Z,1013.27
2023-04-26T01:10:01.105Z,1013.3
2023-04-26T01:11:01.072Z,1013.31
2023-04-26T01:12:01.215Z,1013.29
2023-04-26T01:13:01.458Z,1013.31
2023-04-26T01:14:01.154Z,1013.35
2023-04-26T01:15:01.946Z,1013.34
2023-04-26T01:16:01.914Z,1013.32
2023-04-26T01:17:01.128Z,1013.32
2023-04-26T01:18:01.211Z,1013.33
2023-04-26T01:19:01.215Z,1013.34
2023-04-26T01:20:02.566Z,1013.36
2023-04-26T01:21:03.459Z,1013.36
2023-04-26T01:22:04.091Z,1013.35
2023-04-26T01:23:02.245Z,1013.37
2023-04-26T01:24:01.046Z,1013.34
2023-04-26T01:25:01.076Z,1013.39
2023-04-26T01:26:01.064Z,1013.38
2023-04-26T01:27:01.058Z,1013.39
2023-04-26T01:28:01.075Z,1013.42
2023-04-26T01:29:01.140Z,1013.43
2023-04-26T01:30:01.087Z,1013.42
2023-04-26T01:31:01.247Z,1013.38
2023-04-26T01:32:01.568Z,1013.38
2023-04-26T01:33:01.343Z,1013.42
2023-04-26T01:34:01.387Z,1013.41
2023-04-26T01:35:02.114Z,1013.43
2023-04-26T01:36:02.670Z,1013.42
2023-04-26T01:37:01.132Z,1013.47
2023-04-26T01:38:01.026Z,1013.44
2023-04-26T01:39:01.535Z,1013.47
2023-04-26T01:40:01.389Z,1013.45
2023-04-26T01:41:02.093Z,1013.47
2023-04-26T01:42:02.576Z,1013.48
2023-04-26T01:43:01.056Z,1013.47
2023-04-26T01:44:01.071Z,1013.5
2023-04-26T01:45:01.016Z,1013.53
2023-04-26T01:46:01.030Z,1013.57
2023-04-26T01:47:04.900Z,1013.53
2023-04-26T01:48:01.169Z,1013.54
2023-04-26T01:49:01.529Z,1013.54
2023-04-26T01:50:01.505Z,1013.55
2023-04-26T01:51:02.750Z,1013.55
2023-04-26T01:52:08.565Z,1013.52
2023-04-26T01:53:01.735Z,1013.51
2023-04-26T01:54:01.062Z,1013.57
2023-04-26T01:55:01.041Z,1013.56
2023-04-26T01:56:01.052Z,1013.56
2023-04-26T01:57:10.514Z,1013.54
2023-04-26T01:58:01.758Z,1013.55
2023-04-26T01:59:01.099Z,1013.59
2023-04-26T02:00:01.094Z,1013.57
2023-04-26T02:01:01.018Z,1013.58
2023-04-26T02:02:12.588Z,1013.56
2023-04-26T02:03:00.926Z,1013.58
2023-04-26T02:04:01.695Z,1013.58
2023-04-26T02:05:01.141Z,1013.52
2023-04-26T02:06:01.103Z,1013.55
2023-04-26T02:07:15.725Z,1013.52
2023-04-26T02:08:01.368Z,1013.5
2023-04-26T02:09:02.106Z,1013.52
2023-04-26T02:10:01.018Z,1013.54
2023-04-26T02:11:01.046Z,1013.57
2023-04-26T02:12:01.060Z,1013.53
2023-04-26T02:13:01.044Z,1013.53
2023-04-26T02:14:01.570Z,1013.55
2023-04-26T02:15:01.443Z,1013.53
2023-04-26T02:16:01.425Z,1013.58
2023-04-26T02:17:01.127Z,1013.56
2023-04-26T02:18:01.118Z,1013.55
2023-04-26T02:19:00.803Z,1013.58
2023-04-26T02:20:00.461Z,1013.58
2023-04-26T02:21:00.066Z,1013.56
2023-04-26T02:21:59.765Z,1013.6
2023-04-26T02:23:01.495Z,1013.6
2023-04-26T02:24:01.197Z,1013.55
2023-04-26T02:25:01.237Z,1013.56
2023-04-26T02:26:01.130Z,1013.54
2023-04-26T02:27:01.058Z,1013.59
2023-04-26T02:28:01.041Z,1013.51
2023-04-26T02:29:01.087Z,1013.54
2023-04-26T02:30:01.081Z,1013.54
2023-04-26T02:31:01.133Z,1013.57
2023-04-26T02:32:01.067Z,1013.55
2023-04-26T02:33:01.419Z,1013.58
2023-04-26T02:34:01.411Z,1013.62
2023-04-26T02:35:02.220Z,1013.56
2023-04-26T02:36:03.118Z,1013.59
2023-04-26T02:37:01.884Z,1013.54
2023-04-26T02:38:01.404Z,1013.56
2023-04-26T02:39:01.111Z,1013.51
2023-04-26T02:40:01.216Z,1013.55
2023-04-26T02:41:01.123Z,1013.56
2023-04-26T02:42:01.033Z,1013.54
2023-04-26T02:43:01.296Z,1013.52
2023-04-26T02:44:01.138Z,1013.6
2023-04-26T02:45:01.062Z,1013.58
2023-04-26T02:46:01.678Z,1013.59
2023-04-26T02:47:02.916Z,1013.59
2023-04-26T02:48:01.814Z,1013.6
2023-04-26T02:49:00.617Z,1013.6
2023-04-26T02:50:00.308Z,1013.63
2023-04-26T02:51:00.430Z,1013.6
2023-04-26T02:52:00.312Z,1013.62
2023-04-26T02:52:59.971Z,1013.59
2023-04-26T02:54:00.116Z,1013.61
2023-04-26T02:54:59.777Z,1013.62
2023-04-26T02:56:01.704Z,1013.64
2023-04-26T02:57:04.397Z,1013.61
2023-04-26T02:58:02.469Z,1013.64
2023-04-26T02:59:01.032Z,1013.64
2023-04-26T03:00:01.449Z,1013.62
2023-04-26T03:01:01.876Z,1013.63
2023-04-26T03:02:01.286Z,1013.62
2023-04-26T03:03:01.182Z,1013.61
2023-04-26T03:04:00.978Z,1013.62
2023-04-26T03:05:01.071Z,1013.65
2023-04-26T03:06:01.285Z,1013.65
2023-04-26T03:07:01.483Z,1013.66
2023-04-26T03:08:01.095Z,1013.68
2023-04-26T03:09:00.680Z,1013.66
2023-04-26T03:10:00.309Z,1013.7
2023-04-26T03:10:59.867Z,1013.71
2023-04-26T03:11:59.470Z,1013.66
2023-04-26T03:13:01.198Z,1013.75
2023-04-26T03:14:01.024Z,1013.74
2023-04-26T03:15:01.021Z,1013.75
2023-04-26T03:16:01.147Z,1013.76
2023-04-26T03:17:07.961Z,1013.76
2023-04-26T03:18:01.853Z,1013.77
2023-04-26T03:19:01.601Z,1013.76
2023-04-26T03:20:02.913Z,1013.77
2023-04-26T03:21:02.118Z,1013.76
2023-04-26T03:22:02.488Z,1013.82
2023-04-26T03:23:03.626Z,1013.82
2023-04-26T03:24:01.108Z,1013.77
2023-04-26T03:25:01.086Z,1013.85
2023-04-26T03:26:01.110Z,1013.82
2023-04-26T03:27:00.816Z,1013.82
2023-04-26T03:28:05.251Z,1013.84
2023-04-26T03:29:01.988Z,1013.84
2023-04-26T03:30:02.348Z,1013.87
2023-04-26T03:31:01.026Z,1013.83
2023-04-26T03:32:01.167Z,1013.86
2023-04-26T03:33:09.438Z,1013.83
2023-04-26T03:34:01.738Z,1013.85
2023-04-26T03:35:02.193Z,1013.83
2023-04-26T03:36:02.121Z,1013.9
2023-04-26T03:37:01.077Z,1013.84
2023-04-26T03:38:14.357Z,1013.89
2023-04-26T03:39:01.261Z,1013.87
2023-04-26T03:40:01.155Z,1013.87
2023-04-26T03:41:01.487Z,1013.88
2023-04-26T03:42:02.547Z,1013.9
2023-04-26T03:43:16.775Z,1013.85
2023-04-26T03:44:01.698Z,1013.87
2023-04-26T03:45:01.907Z,1013.93
2023-04-26T03:46:01.834Z,1013.92
2023-04-26T03:47:01.083Z,1013.89
2023-04-26T03:48:01.014Z,1013.91
2023-04-26T03:49:00.642Z,1013.84
2023-04-26T03:50:00.335Z,1013.88
2023-04-26T03:50:59.926Z,1013.87
2023-04-26T03:51:59.524Z,1013.84
2023-04-26T03:53:01.142Z,1013.86
2023-04-26T03:54:01.147Z,1013.89
2023-04-26T03:55:01.056Z,1013.91
2023-04-26T03:56:01.106Z,1013.92
2023-04-26T03:57:01.098Z,1013.96
2023-04-26T03:58:01.190Z,1013.93
2023-04-26T03:59:01.126Z,1013.92
2023-04-26T04:00:01.122Z,1014
2023-04-26T04:01:01.128Z,1013.96
2023-04-26T04:02:01.187Z,1013.94
2023-04-26T04:03:01.101Z,1013.98
2023-04-26T04:04:01.295Z,1013.96
2023-04-26T04:05:01.520Z,1013.98
2023-04-26T04:06:01.036Z,1013.94
2023-04-26T04:07:00.545Z,1013.93
2023-04-26T04:08:00.490Z,1013.93
2023-04-26T04:09:00.312Z,1013.91
2023-04-26T04:10:00.327Z,1013.94
2023-04-26T04:11:00.063Z,1013.95
2023-04-26T04:11:59.751Z,1013.93
2023-04-26T04:13:01.491Z,1013.93
2023-04-26T04:14:01.675Z,1013.94
2023-04-26T04:15:01.113Z,1013.92
2023-04-26T04:16:01.179Z,1013.91
2023-04-26T04:17:01.045Z,1013.93
2023-04-26T04:18:01.063Z,1013.95
2023-04-26T04:19:01.881Z,1014.01
2023-04-26T04:20:00.731Z,1013.99
2023-04-26T04:21:00.428Z,1013.99
2023-04-26T04:22:00.032Z,1013.94
2023-04-26T04:22:59.708Z,1013.97
2023-04-26T04:24:01.651Z,1013.99
2023-04-26T04:25:01.451Z,1014.05
2023-04-26T04:26:01.449Z,1014.01
2023-04-26T04:27:00.765Z,1014.03
2023-04-26T04:28:00.479Z,1014.04
2023-04-26T04:29:00.057Z,1014.08
2023-04-26T04:29:59.817Z,1014.06
2023-04-26T04:31:01.598Z,1014.07
2023-04-26T04:32:01.696Z,1014.07
2023-04-26T04:33:01.219Z,1014.07
2023-04-26T04:34:01.236Z,1014.05
2023-04-26T04:35:01.456Z,1014.12
2023-04-26T04:36:01.038Z,1014.1
2023-04-26T04:37:01.039Z,1014.13
2023-04-26T04:38:01.311Z,1014.09
2023-04-26T04:39:01.673Z,1014.14
2023-04-26T04:40:02.029Z,1014.12
2023-04-26T04:41:01.754Z,1014.14
2023-04-26T04:42:01.461Z,1014.16
2023-04-26T04:43:01.551Z,1014.18
2023-04-26T04:44:01.093Z,1014.21
2023-04-26T04:45:01.478Z,1014.22
2023-04-26T04:46:01.507Z,1014.26
2023-04-26T04:47:01.550Z,1014.25
2023-04-26T04:48:02.279Z,1014.31
2023-04-26T04:49:01.697Z,1014.3
2023-04-26T04:50:04.392Z,1014.32
2023-04-26T04:51:01.733Z,1014.32
2023-04-26T04:52:02.978Z,1014.32
2023-04-26T04:53:01.869Z,1014.33
2023-04-26T04:54:01.075Z,1014.29
2023-04-26T04:55:01.435Z,1014.31
2023-04-26T04:56:01.653Z,1014.32
2023-04-26T04:57:02.072Z,1014.34
2023-04-26T04:58:01.297Z,1014.37
2023-04-26T04:59:03.449Z,1014.37
2023-04-26T05:00:05.226Z,1014.43
2023-04-26T05:01:01.510Z,1014.4
2023-04-26T05:02:01.199Z,1014.4
2023-04-26T05:03:01.311Z,1014.39
2023-04-26T05:04:05.736Z,1014.45
2023-04-26T05:05:01.257Z,1014.45
2023-04-26T05:06:02.231Z,1014.46
2023-04-26T05:07:01.660Z,1014.41
2023-04-26T05:08:01.349Z,1014.42
2023-04-26T05:09:06.833Z,1014.44
2023-04-26T05:10:01.156Z,1014.45
2023-04-26T05:11:01.148Z,1014.46
2023-04-26T05:12:01.070Z,1014.49
2023-04-26T05:13:01.057Z,1014.47
2023-04-26T05:14:09.590Z,1014.49
2023-04-26T05:15:01.465Z,1014.48
2023-04-26T05:16:01.489Z,1014.47
2023-04-26T05:17:01.203Z,1014.51
2023-04-26T05:18:04.215Z,1014.51
2023-04-26T05:19:13.766Z,1014.5
2023-04-26T05:20:01.236Z,1014.53
2023-04-26T05:21:01.119Z,1014.53
2023-04-26T05:22:01.127Z,1014.59
2023-04-26T05:23:01.075Z,1014.55
2023-04-26T05:24:16.527Z,1014.55
2023-04-26T05:25:00.696Z,1014.56
2023-04-26T05:26:00.266Z,1014.59
2023-04-26T05:26:59.922Z,1014.63
2023-04-26T05:27:59.619Z,1014.6
2023-04-26T05:29:01.227Z,1014.64
2023-04-26T05:30:01.893Z,1014.65
2023-04-26T05:31:02.644Z,1014.63
2023-04-26T05:32:01.180Z,1014.63
2023-04-26T05:33:01.211Z,1014.62
2023-04-26T05:34:01.417Z,1014.66
2023-04-26T05:35:01.925Z,1014.62
2023-04-26T05:36:01.312Z,1014.63
2023-04-26T05:37:01.136Z,1014.61
2023-04-26T05:38:01.535Z,1014.66
2023-04-26T05:39:01.145Z,1014.62
2023-04-26T05:40:01.607Z,1014.69
2023-04-26T05:41:01.434Z,1014.63
2023-04-26T05:42:02.583Z,1014.68
2023-04-26T05:43:01.169Z,1014.65
2023-04-26T05:44:01.074Z,1014.7
2023-04-26T05:45:01.089Z,1014.66
2023-04-26T05:46:01.356Z,1014.69
2023-04-26T05:47:00.870Z,1014.71
2023-04-26T05:48:01.164Z,1014.66
2023-04-26T05:49:01.065Z,1014.66
2023-04-26T05:50:01.239Z,1014.68
2023-04-26T05:51:01.465Z,1014.71
2023-04-26T05:52:01.239Z,1014.72
2023-04-26T05:53:01.423Z,1014.63
2023-04-26T05:54:01.269Z,1014.71
2023-04-26T05:55:01.947Z,1014.75
2023-04-26T05:56:02.073Z,1014.72
2023-04-26T05:57:01.877Z,1014.77
2023-04-26T05:58:02.128Z,1014.75
2023-04-26T05:59:01.055Z,1014.78
2023-04-26T06:00:01.089Z,1014.78
2023-04-26T06:01:01.891Z,1014.77
2023-04-26T06:02:01.863Z,1014.82
2023-04-26T06:03:01.324Z,1014.86
2023-04-26T06:04:01.779Z,1014.82
2023-04-26T06:05:02.686Z,1014.9
2023-04-26T06:06:01.138Z,1014.76
2023-04-26T06:07:00.676Z,1014.82
2023-04-26T06:08:00.264Z,1014.8
2023-04-26T06:08:59.888Z,1014.83
2023-04-26T06:09:59.874Z,1014.87
2023-04-26T06:10:59.459Z,1014.89
2023-04-26T06:12:01.201Z,1014.89
2023-04-26T06:13:01.284Z,1014.83
2023-04-26T06:14:01.725Z,1014.85
2023-04-26T06:15:01.053Z,1014.85
2023-04-26T06:16:01.060Z,1014.82
2023-04-26T06:17:01.134Z,1014.85
2023-04-26T06:18:01.122Z,1014.85
2023-04-26T06:19:01.081Z,1014.83
2023-04-26T06:20:01.145Z,1014.83
2023-04-26T06:21:01.608Z,1014.8
2023-04-26T06:22:02.000Z,1014.85
2023-04-26T06:23:01.259Z,1014.85
2023-04-26T06:24:01.399Z,1014.9
2023-04-26T06:25:00.888Z,1014.9
2023-04-26T06:26:01.042Z,1014.86
2023-04-26T06:27:01.035Z,1014.86
2023-04-26T06:28:00.744Z,1014.86
2023-04-26T06:29:00.292Z,1014.89
2023-04-26T06:29:59.893Z,1014.85
2023-04-26T06:30:59.719Z,1014.87
2023-04-26T06:32:01.350Z,1014.91
2023-04-26T06:33:01.413Z,1014.87
2023-04-26T06:34:01.091Z,1014.85
2023-04-26T06:35:00.769Z,1014.89
2023-04-26T06:36:00.523Z,1014.86
2023-04-26T06:37:00.484Z,1014.88
2023-04-26T06:38:00.177Z,1014.87
2023-04-26T06:38:59.862Z,1014.88
2023-04-26T06:40:02.559Z,1014.89
2023-04-26T06:41:01.345Z,1014.92
2023-04-26T06:42:01.350Z,1014.87
2023-04-26T06:43:01.388Z,1014.96
2023-04-26T06:44:02.032Z,1014.95
2023-04-26T06:45:02.667Z,1014.97
2023-04-26T06:46:01.057Z,1014.93
2023-04-26T06:47:01.053Z,1014.93
2023-04-26T06:48:01.111Z,1014.95
2023-04-26T06:49:01.058Z,1014.99
2023-04-26T06:50:05.005Z,1014.97
2023-04-26T06:51:01.088Z,1014.94
2023-04-26T06:52:01.366Z,1014.96
2023-04-26T06:53:01.506Z,1014.97
2023-04-26T06:54:01.115Z,1014.97
2023-04-26T06:55:08.073Z,1014.95
2023-04-26T06:56:01.503Z,1014.95
2023-04-26T06:57:01.634Z,1014.95
2023-04-26T06:58:01.763Z,1014.96
2023-04-26T06:59:01.330Z,1014.97
2023-04-26T07:00:09.741Z,1014.96
2023-04-26T07:01:02.186Z,1015.04
2023-04-26T07:02:01.956Z,1015.03
2023-04-26T07:03:02.557Z,1014.96
2023-04-26T07:04:01.176Z,1015.04
2023-04-26T07:05:13.974Z,1015.05
2023-04-26T07:06:01.075Z,1015.05
2023-04-26T07:07:01.154Z,1015.03
2023-04-26T07:08:01.080Z,1015.08
2023-04-26T07:09:01.547Z,1015.09
2023-04-26T07:10:16.401Z,1015.06
2023-04-26T07:11:02.115Z,1015.06
2023-04-26T07:12:02.160Z,1015.08
2023-04-26T07:13:01.538Z,1015.1
2023-04-26T07:14:01.727Z,1015.09
2023-04-26T07:15:01.150Z,1015.04
2023-04-26T07:16:01.068Z,1015.03
2023-04-26T07:17:01.033Z,1015.05
2023-04-26T07:18:01.074Z,1015.06
2023-04-26T07:19:01.453Z,1015.03
2023-04-26T07:20:01.202Z,1015.06
2023-04-26T07:21:01.434Z,1015.1
2023-04-26T07:22:01.457Z,1015.12
2023-04-26T07:23:01.172Z,1015.12
2023-04-26T07:24:02.418Z,1015.12
2023-04-26T07:25:01.106Z,1015.13
2023-04-26T07:26:01.598Z,1015.07
2023-04-26T07:27:01.094Z,1015.1
2023-04-26T07:28:01.054Z,1015.14
2023-04-26T07:29:01.051Z,1015.12
2023-04-26T07:30:01.149Z,1015.06
2023-04-26T07:31:01.510Z,1015.15
2023-04-26T07:32:02.194Z,1015.19
2023-04-26T07:33:01.140Z,1015.21
2023-04-26T07:34:01.764Z,1015.18
2023-04-26T07:35:01.045Z,1015.18
2023-04-26T07:36:01.049Z,1015.13
2023-04-26T07:37:01.057Z,1015.14
2023-04-26T07:38:01.066Z,1015.14
2023-04-26T07:39:01.073Z,1015.17
2023-04-26T07:40:01.525Z,1015.22
2023-04-26T07:41:01.194Z,1015.19
2023-04-26T07:42:01.473Z,1015.14
2023-04-26T07:43:01.112Z,1015.18
2023-04-26T07:44:01.119Z,1015.12
2023-04-26T07:45:01.109Z,1015.15
2023-04-26T07:46:01.220Z,1015.13
2023-04-26T07:47:00.900Z,1015.16
2023-04-26T07:48:01.164Z,1015.21
2023-04-26T07:49:00.535Z,1015.11
2023-04-26T07:50:00.435Z,1015.13
2023-04-26T07:51:00.132Z,1015.09
2023-04-26T07:51:59.860Z,1015.13
2023-04-26T07:53:01.807Z,1015.1
2023-04-26T07:54:01.727Z,1015.13
2023-04-26T07:55:01.758Z,1015.14
2023-04-26T07:56:01.756Z,1015.09
2023-04-26T07:57:01.370Z,1015.06
2023-04-26T07:58:02.540Z,1015.15
2023-04-26T07:59:01.032Z,1015.16
2023-04-26T08:00:01.023Z,1015.15
2023-04-26T08:01:01.495Z,1015.16
2023-04-26T08:02:02.099Z,1015.17
2023-04-26T08:03:01.322Z,1015.16
2023-04-26T08:04:03.132Z,1015.19
2023-04-26T08:05:01.266Z,1015.16
2023-04-26T08:06:01.402Z,1015.19
2023-04-26T08:07:00.530Z,1015.12
2023-04-26T08:08:00.103Z,1015.15
2023-04-26T08:09:00.053Z,1015.18
2023-04-26T08:10:00.054Z,1015.2
2023-04-26T08:10:59.626Z,1015.16
2023-04-26T08:12:01.830Z,1015.21
2023-04-26T08:13:01.766Z,1015.19
2023-04-26T08:14:01.096Z,1015.17
2023-04-26T08:15:01.190Z,1015.18
2023-04-26T08:16:01.098Z,1015.17
2023-04-26T08:17:01.120Z,1015.21
2023-04-26T08:18:01.180Z,1015.15
2023-04-26T08:19:01.434Z,1015.21
2023-04-26T08:20:01.455Z,1015.19
2023-04-26T08:21:02.802Z,1015.1
2023-04-26T08:22:01.667Z,1015.11
2023-04-26T08:23:01.358Z,1015.13
2023-04-26T08:24:01.231Z,1015.05
2023-04-26T08:25:01.227Z,1015.12
2023-04-26T08:26:01.060Z,1015.11
2023-04-26T08:27:00.755Z,1015.16
2023-04-26T08:28:00.325Z,1015.09
2023-04-26T08:28:59.939Z,1015.09
2023-04-26T08:29:59.640Z,1015.11
2023-04-26T08:31:01.666Z,1015.05
2023-04-26T08:32:01.073Z,1015.07
2023-04-26T08:33:01.142Z,1015.1
2023-04-26T08:34:01.111Z,1015.09
2023-04-26T08:35:01.875Z,1015.14
2023-04-26T08:36:01.198Z,1015.1
2023-04-26T08:37:01.996Z,1015.07
2023-04-26T08:38:01.045Z,1015.15
2023-04-26T08:39:01.326Z,1015.1
2023-04-26T08:40:01.317Z,1015.17
2023-04-26T08:41:01.898Z,1015.12
2023-04-26T08:42:02.405Z,1015.12
2023-04-26T08:43:01.015Z,1015.11
2023-04-26T08:44:01.074Z,1015.08
2023-04-26T08:45:01.100Z,1015.13
2023-04-26T08:46:04.584Z,1015.12
2023-04-26T08:47:00.594Z,1015.12
2023-04-26T08:48:01.473Z,1015.17
2023-04-26T08:49:01.301Z,1015.12
2023-04-26T08:50:01.008Z,1015.18
2023-04-26T08:51:06.787Z,1015.17
2023-04-26T08:52:01.119Z,1015.13
2023-04-26T08:53:01.049Z,1015.16
2023-04-26T08:54:02.187Z,1015.14
2023-04-26T08:55:01.122Z,1015.18
2023-04-26T08:56:09.113Z,1015.13
2023-04-26T08:57:01.365Z,1015.22
2023-04-26T08:58:01.075Z,1015.2
2023-04-26T08:59:01.099Z,1015.25
2023-04-26T09:00:01.079Z,1015.31
2023-04-26T09:01:11.099Z,1015.38
2023-04-26T09:02:01.503Z,1015.48
2023-04-26T09:03:01.149Z,1015.4
2023-04-26T09:04:01.388Z,1015.44
2023-04-26T09:05:01.303Z,1015.49
2023-04-26T09:06:14.470Z,1015.49
2023-04-26T09:07:01.107Z,1015.45
2023-04-26T09:08:01.134Z,1015.47
2023-04-26T09:09:03.862Z,1015.39
2023-04-26T09:10:01.710Z,1015.42
2023-04-26T09:11:16.313Z,1015.41
2023-04-26T09:12:02.187Z,1015.33
2023-04-26T09:13:02.834Z,1015.31
2023-04-26T09:14:02.003Z,1015.33
2023-04-26T09:15:01.798Z,1015.33
2023-04-26T09:16:02.711Z,1015.31
2023-04-26T09:17:01.102Z,1015.34
2023-04-26T09:18:01.611Z,1015.31
2023-04-26T09:19:01.253Z,1015.28
2023-04-26T09:20:01.483Z,1015.37
2023-04-26T09:21:01.833Z,1015.33
2023-04-26T09:22:01.119Z,1015.36
2023-04-26T09:23:01.113Z,1015.36
2023-04-26T09:24:01.113Z,1015.36
2023-04-26T09:25:01.019Z,1015.27
2023-04-26T09:26:01.143Z,1015.32
2023-04-26T09:27:00.762Z,1015.33
2023-04-26T09:28:00.333Z,1015.3
2023-04-26T09:29:00.156Z,1015.32
2023-04-26T09:29:59.715Z,1015.34
2023-04-26T09:31:02.694Z,1015.37
2023-04-26T09:32:01.098Z,1015.35
2023-04-26T09:33:01.164Z,1015.34
2023-04-26T09:34:01.054Z,1015.35
2023-04-26T09:35:01.091Z,1015.36
2023-04-26T09:36:01.103Z,1015.32
2023-04-26T09:37:01.203Z,1015.35
2023-04-26T09:38:07.913Z,1015.3
2023-04-26T09:39:01.443Z,1015.31
2023-04-26T09:40:01.120Z,1015.26
2023-04-26T09:41:01.027Z,1015.23
2023-04-26T09:42:01.042Z,1015.19
2023-04-26T09:43:01.206Z,1015.26
2023-04-26T09:44:01.042Z,1015.27
2023-04-26T09:45:01.052Z,1015.29
2023-04-26T09:46:01.060Z,1015.2
2023-04-26T09:47:00.801Z,1015.24
2023-04-26T09:48:00.496Z,1015.21
2023-04-26T09:49:00.141Z,1015.28
2023-04-26T09:50:00.019Z,1015.32
2023-04-26T09:50:59.633Z,1015.34
2023-04-26T09:52:01.286Z,1015.23
2023-04-26T09:53:02.096Z,1015.26
2023-04-26T09:54:01.260Z,1015.24
2023-04-26T09:55:01.497Z,1015.25
2023-04-26T09:56:01.133Z,1015.25
2023-04-26T09:57:01.031Z,1015.18
2023-04-26T09:58:01.066Z,1015.21
2023-04-26T09:59:01.050Z,1015.22
2023-04-26T10:00:01.203Z,1015.27
2023-04-26T10:01:01.252Z,1015.25
2023-04-26T10:02:01.074Z,1015.22
2023-04-26T10:03:01.127Z,1015.22
2023-04-26T10:04:01.189Z,1015.28
2023-04-26T10:05:02.078Z,1015.19
2023-04-26T10:06:01.188Z,1015.22
2023-04-26T10:07:00.865Z,1015.26
2023-04-26T10:08:01.161Z,1015.18
2023-04-26T10:09:01.223Z,1015.23
2023-04-26T10:10:01.168Z,1015.19
2023-04-26T10:11:05.133Z,1015.28
2023-04-26T10:12:01.230Z,1015.22
2023-04-26T10:13:02.137Z,1015.26
2023-04-26T10:14:01.061Z,1015.26
2023-04-26T10:15:01.429Z,1015.2
2023-04-26T10:16:02.339Z,1015.2
2023-04-26T10:17:01.084Z,1015.21
2023-04-26T10:18:01.143Z,1015.14
2023-04-26T10:19:01.057Z,1015.16
2023-04-26T10:20:01.066Z,1015.13
2023-04-26T10:21:01.070Z,1015.07
2023-04-26T10:22:01.458Z,1015.17
2023-04-26T10:23:01.131Z,1015.09
2023-04-26T10:24:01.173Z,1015.07
2023-04-26T10:25:01.309Z,1015.13
2023-04-26T10:26:01.169Z,1015.1
2023-04-26T10:27:00.818Z,1015.13
2023-04-26T10:28:00.402Z,1015.18
2023-04-26T10:29:02.970Z,1015.08
2023-04-26T10:30:02.101Z,1015.07
2023-04-26T10:31:01.925Z,1015.03
2023-04-26T10:32:04.658Z,1015.04
2023-04-26T10:33:01.815Z,1015.09
2023-04-26T10:34:01.770Z,1015.05
2023-04-26T10:35:01.026Z,1015.11
2023-04-26T10:36:01.075Z,1015.17
2023-04-26T10:37:06.145Z,1015.07
2023-04-26T10:38:01.805Z,1015.14
2023-04-26T10:39:01.882Z,1015.1
2023-04-26T10:40:01.593Z,1015.14
2023-04-26T10:41:01.110Z,1015.15
2023-04-26T10:42:09.184Z,1015.21
2023-04-26T10:43:01.115Z,1015.17
2023-04-26T10:44:01.122Z,1015.2
2023-04-26T10:45:01.302Z,1015.13
2023-04-26T10:46:01.066Z,1015.14
2023-04-26T10:47:12.465Z,1015.11
2023-04-26T10:48:02.225Z,1015.18
2023-04-26T10:49:01.086Z,1015.14
2023-04-26T10:50:02.013Z,1015.08
2023-04-26T10:51:01.129Z,1015.07
2023-04-26T10:52:14.275Z,1015.07
2023-04-26T10:53:01.892Z,1015.03
2023-04-26T10:54:01.533Z,1015.03
2023-04-26T10:55:02.300Z,1014.99
2023-04-26T10:56:02.212Z,1015.03
2023-04-26T10:57:01.138Z,1015.03
2023-04-26T10:58:01.203Z,1015.08
2023-04-26T10:59:01.136Z,1015.09
2023-04-26T11:00:01.150Z,1015.12
2023-04-26T11:01:01.186Z,1015.16
2023-04-26T11:02:01.050Z,1015.15
2023-04-26T11:03:01.087Z,1015.19
2023-04-26T11:04:01.695Z,1015.08
2023-04-26T11:05:01.931Z,1015.09
2023-04-26T11:06:01.452Z,1015.07
2023-04-26T11:07:00.852Z,1015.16
2023-04-26T11:08:00.505Z,1015.14
2023-04-26T11:09:00.162Z,1015.13
2023-04-26T11:09:59.844Z,1015.14
2023-04-26T11:11:01.494Z,1015.14
2023-04-26T11:12:00.774Z,1015.08
2023-04-26T11:13:00.716Z,1015.06
2023-04-26T11:14:00.378Z,1015.17
2023-04-26T11:14:59.973Z,1015.12
2023-04-26T11:15:59.602Z,1015.12
2023-04-26T11:17:01.284Z,1015.18
2023-04-26T11:18:02.098Z,1015.18
2023-04-26T11:19:02.476Z,1015.08
2023-04-26T11:20:01.074Z,1015.18
2023-04-26T11:21:01.331Z,1015.19
2023-04-26T11:22:01.223Z,1015.18
2023-04-26T11:23:08.218Z,1015.22
2023-04-26T11:24:04.008Z,1015.13
2023-04-26T11:25:01.289Z,1015.21
2023-04-26T11:26:01.911Z,1015.16
2023-04-26T11:27:00.777Z,1015.14
2023-04-26T11:28:00.427Z,1015.13
2023-04-26T11:29:00.060Z,1015.13
2023-04-26T11:29:59.657Z,1015.19
2023-04-26T11:31:01.366Z,1015.23
2023-04-26T11:32:01.295Z,1015.15
2023-04-26T11:33:01.162Z,1015.16
2023-04-26T11:34:01.137Z,1015.15
2023-04-26T11:35:01.058Z,1015.12
2023-04-26T11:36:01.015Z,1015.08
2023-04-26T11:37:01.035Z,1015.07
2023-04-26T11:38:01.099Z,1015.05
2023-04-26T11:39:01.423Z,1015.15
2023-04-26T11:40:01.893Z,1015.08
2023-04-26T11:41:01.056Z,1015.11
2023-04-26T11:42:01.090Z,1015.18
2023-04-26T11:43:01.369Z,1015.15
2023-04-26T11:44:01.151Z,1015.07
2023-04-26T11:45:01.111Z,1015.2
2023-04-26T11:46:01.112Z,1015.25
2023-04-26T11:47:01.610Z,1015.23
2023-04-26T11:48:01.178Z,1015.23
2023-04-26T11:49:01.160Z,1015.35
2023-04-26T11:50:01.028Z,1015.31
2023-04-26T11:51:01.032Z,1015.33
2023-04-26T11:52:01.061Z,1015.38
2023-04-26T11:53:01.075Z,1015.34
2023-04-26T11:54:01.053Z,1015.35
2023-04-26T11:55:01.077Z,1015.27
2023-04-26T11:56:01.076Z,1015.27
2023-04-26T11:57:01.260Z,1015.32
2023-04-26T11:58:01.096Z,1015.38
2023-04-26T11:59:01.026Z,1015.34
2023-04-26T12:00:01.110Z,1015.38
2023-04-26T12:01:01.114Z,1015.41
2023-04-26T12:02:01.143Z,1015.35
2023-04-26T12:03:01.311Z,1015.33
2023-04-26T12:04:01.624Z,1015.34
2023-04-26T12:05:02.768Z,1015.39
2023-04-26T12:06:02.128Z,1015.38
2023-04-26T12:07:01.414Z,1015.48